Flight Track Log - Related Links

Times and Time Zones

All times are in EDT time to prevent confusion due to time zone crossing. See the SWA36 flight status page for this flight to view local times or setup timezone preferences in your user account.

Time Position Orientation Groundspeed Altitude Reporting Facility
EDT Latitude Longitude Course Direction KTS MPH feet Rate Location/Type
Fri 04:23:55 PM 29.6356 -95.2675 54° Northeast 139 160 600  Level Houston Center
Fri 04:24:45 PM 29.6539 -95.2389 54° Northeast 214 246 1,800 1,342 Climbing Houston Center
Fri 04:25:11 PM 29.6714 -95.2411 354° North 239 275 2,300 2,557 Climbing Houston Center
Fri 04:25:46 PM 29.7181 -95.2525 348° North 243 280 4,400 2,516 Climbing Houston Center
Fri 04:26:13 PM 29.7344 -95.2617 334° Northwest 239 275 4,900 2,032 Climbing Houston Center
Fri 04:26:48 PM 29.7833 -95.2978 327° Northwest 278 320 6,500 2,710 Climbing Houston Center
Fri 04:27:15 PM 29.8186 -95.3100 343° North 291 335 7,700 3,344 Climbing Houston Center
Fri 04:27:49 PM 29.8667 -95.3142 356° North 310 357 9,900 3,387 Climbing Houston Center
Fri 04:28:17 PM 29.9033 -95.3147 359° North 299 344 11,200 2,557 Climbing Houston Center
Fri 04:28:50 PM 29.9539 -95.3275 348° North 314 361 12,500 2,129 Climbing Houston Center
Fri 04:29:19 PM 29.9914 -95.3378 347° North 322 371 13,400 2,516 Climbing Houston Center
Fri 04:29:52 PM 30.0444 -95.3528 346° North 346 398 15,100 2,190 Climbing Houston Center
Fri 04:30:22 PM 30.0853 -95.3625 348° North 342 394 15,700 848 Climbing Houston Center
Fri 04:31:24 PM 30.1844 -95.3883 347° North 360 414 16,400 1,355 Climbing Houston Center
Fri 04:32:26 PM 30.2883 -95.4131 348° North 376 433 18,500 2,419 Climbing Houston Center
Fri 04:33:28 PM 30.4150 -95.4481 347° North 387 445 21,400 2,177 Climbing Houston Center
Fri 04:34:30 PM 30.5217 -95.4728 349° North 391 450 23,000 1,355 Climbing Houston Center
Fri 04:35:32 PM 30.6325 -95.4975 349° North 403 464 24,200 1,500 Climbing Houston Center
Fri 04:36:34 PM 30.7575 -95.5250 349° North 404 465 26,100 1,632 Climbing Houston Center
Fri 04:37:37 PM 30.8711 -95.5508 349° North 411 473 27,600 1,536 Climbing Houston Center
Fri 04:38:39 PM 30.9878 -95.5786 348° North 420 483 29,300 1,548 Climbing Houston Center
Fri 04:39:41 PM 31.1058 -95.6056 349° North 425 489 30,800 1,268 Climbing Houston Center
Fri 04:40:42 PM 31.2383 -95.6350 349° North 433 498 31,900 595 Climbing Fort Worth Center
Fri 04:41:42 PM 31.3556 -95.6642 348° North 428 493 32,000 -450 Climbing Fort Worth Center
Fri 04:42:42 PM 31.4547 -95.7258 332° Northwest 422 486 31,000 -1,050 Descending Fort Worth Center
Fri 04:43:42 PM 31.5558 -95.7922 331° Northwest 416 479 29,900 -1,500 Descending Fort Worth Center
Fri 04:44:42 PM 31.6483 -95.8564 329° Northwest 398 458 28,000 -2,050 Descending Fort Worth Center
Fri 04:45:42 PM 31.7306 -95.9161 328° Northwest 392 451 25,800 -2,300 Descending Fort Worth Center
Fri 04:46:42 PM 31.8356 -95.9803 333° Northwest 379 436 23,400 -2,250 Descending Fort Worth Center
Fri 04:47:42 PM 31.9156 -96.0331 331° Northwest 360 414 21,300 -1,950 Descending Fort Worth Center
Fri 04:48:42 PM 31.9933 -96.0881 329° Northwest 355 409 19,500 -1,900 Descending Fort Worth Center
Fri 04:49:42 PM 32.0775 -96.1433 331° Northwest 350 403 17,500 -2,100 Descending Fort Worth Center
Fri 04:50:42 PM 32.1617 -96.2011 330° Northwest 345 397 15,300 -2,300 Descending Fort Worth Center
Fri 04:51:42 PM 32.2519 -96.2589 332° Northwest 338 389 12,900 -2,100 Descending Fort Worth Center
Fri 04:52:42 PM 32.3358 -96.3119 332° Northwest 338 389 11,100 -1,500 Descending Fort Worth Center
Fri 04:53:42 PM 32.4094 -96.3528 335° Northwest 332 382 9,900 -1,250 Descending Fort Worth Center
Fri 04:54:42 PM 32.4850 -96.4011 332° Northwest 297 342 8,600 -1,350 Descending Fort Worth Center
Fri 04:55:42 PM 32.5456 -96.4375 333° Northwest 273 314 7,200 -1,200 Descending Fort Worth Center
Fri 04:56:42 PM 32.6253 -96.4836 334° Northwest 273 314 6,200 -950 Descending Fort Worth Center
Fri 04:57:42 PM 32.6883 -96.5272 330° Northwest 283 326 5,300 -850 Descending Fort Worth Center
Fri 04:58:42 PM 32.7597 -96.5883 324° Northwest 288 331 4,500 -650 Descending Fort Worth Center
Fri 04:59:42 PM 32.8142 -96.6372 323° Northwest 283 326 4,000 -395 Descending Fort Worth Center
Fri 04:59:58 PM 32.8333 -96.6667 308° West 284 327 4,000  Level Dallas / Fort Worth TRACON
Fri 05:00:58 PM 32.8833 -96.7167 320° Northwest 266 306 4,000 -250 Level Dallas / Fort Worth TRACON
Fri 05:01:58 PM 32.9333 -96.7833 312° West 256 295 3,500 -614 Descending Dallas / Fort Worth TRACON
Fri 05:03:05 PM 32.9667 -96.8667 296° West 218 251 2,700 -793 Descending Dallas / Fort Worth TRACON
Fri 05:03:59 PM 32.9333 -96.9000 220° Southwest 186 214 1,900 -626 Descending Dallas / Fort Worth TRACON
Fri 05:05:00 PM 32.9000 -96.9000 180° South 164 189 1,500 -545 Descending Dallas / Fort Worth TRACON
Fri 05:06:00 PM 32.8667 -96.8667 140° Southeast 128 147 800 -700 Descending Dallas / Fort Worth TRACON
Fri 05:07:00 PM 32.8471 -96.8518 214° Southwest  Level Estimated
Fri 05:14:00 PM 32.8471 -96.8518 214° Southwest  Level Estimated

Login

Don't have an account? Register now (free) for customized features, flight alerts, and more!